createdAt,value
2022-08-10T00:01:51.478Z,22.33
2022-08-10T00:04:21.014Z,22.27
2022-08-10T00:06:51.781Z,22.21
2022-08-10T00:09:22.871Z,22.17
2022-08-10T00:11:53.408Z,22.12
2022-08-10T00:14:21.517Z,22.11
2022-08-10T00:16:51.665Z,22.02
2022-08-10T00:19:19.572Z,21.95
2022-08-10T00:21:48.166Z,21.94
2022-08-10T00:24:17.713Z,21.90
2022-08-10T00:28:00.949Z,21.84
2022-08-10T00:29:34.428Z,21.78
2022-08-10T00:32:05.072Z,21.74
2022-08-10T00:34:34.556Z,21.70
2022-08-10T00:37:03.042Z,21.66
2022-08-10T00:39:36.061Z,21.62
2022-08-10T00:42:08.154Z,21.56
2022-08-10T00:44:37.749Z,21.54
2022-08-10T00:47:06.393Z,21.48
2022-08-10T00:49:34.967Z,21.46
2022-08-10T00:52:03.801Z,21.47
2022-08-10T00:54:35.907Z,21.40
2022-08-10T00:57:17.886Z,21.35
2022-08-10T00:59:59.006Z,21.34
2022-08-10T01:02:28.922Z,21.21
2022-08-10T01:05:00.897Z,21.12
2022-08-10T01:07:56.605Z,21.07
2022-08-10T01:10:33.651Z,21.03
2022-08-10T01:13:07.974Z,20.99
2022-08-10T01:15:44.374Z,20.96
2022-08-10T01:18:19.414Z,20.91
2022-08-10T01:21:05.797Z,20.91
2022-08-10T01:23:58.786Z,20.92
2022-08-10T01:26:44.277Z,20.90
2022-08-10T01:29:28.237Z,20.85
2022-08-10T01:32:01.835Z,20.84
2022-08-10T01:34:37.454Z,20.81
2022-08-10T01:37:12.786Z,20.76
2022-08-10T01:39:52.952Z,20.73
2022-08-10T01:42:24.727Z,20.74
2022-08-10T01:44:57.282Z,20.75
2022-08-10T01:47:47.242Z,20.74
2022-08-10T01:50:21.632Z,20.75
2022-08-10T01:52:54.088Z,20.76
2022-08-10T01:55:27.927Z,20.73
2022-08-10T01:57:57.807Z,20.71
2022-08-10T02:00:29.304Z,20.68
2022-08-10T02:02:59.234Z,20.67
2022-08-10T02:05:32.250Z,20.64
2022-08-10T02:08:05.841Z,20.60
2022-08-10T02:10:36.171Z,20.57
2022-08-10T02:13:05.191Z,20.53
2022-08-10T02:15:38.112Z,20.51
2022-08-10T02:18:27.094Z,20.40
2022-08-10T02:20:55.547Z,20.39
2022-08-10T02:23:26.596Z,20.39
2022-08-10T02:25:59.670Z,20.35
2022-08-10T02:28:31.276Z,20.32
2022-08-10T02:31:06.380Z,20.32
2022-08-10T02:33:37.917Z,20.28
2022-08-10T02:36:08.816Z,20.24
2022-08-10T02:38:59.091Z,20.17
2022-08-10T02:45:01.234Z,20.19
2022-08-10T02:45:20.595Z,20.18
2022-08-10T02:47:27.566Z,20.16
2022-08-10T02:50:05.896Z,20.13
2022-08-10T02:52:41.970Z,20.12
2022-08-10T02:55:18.731Z,20.06
2022-08-10T02:58:12.596Z,20.08
2022-08-10T03:00:47.222Z,20.01
2022-08-10T03:03:22.303Z,19.98
2022-08-10T03:05:55.582Z,19.96
2022-08-10T03:08:28.280Z,19.96
2022-08-10T03:11:00.113Z,19.95
2022-08-10T03:13:32.257Z,19.91
2022-08-10T03:16:03.582Z,19.88
2022-08-10T03:18:34.907Z,19.85
2022-08-10T03:21:06.013Z,19.82
2022-08-10T03:23:39.131Z,19.81
2022-08-10T03:26:11.623Z,19.77
2022-08-10T03:28:41.581Z,19.72
2022-08-10T03:31:10.111Z,19.69
2022-08-10T03:33:44.725Z,19.63
2022-08-10T03:36:41.229Z,19.61
2022-08-10T03:39:01.451Z,19.60
2022-08-10T03:41:36.449Z,19.61
2022-08-10T03:44:06.749Z,19.55
2022-08-10T03:46:36.916Z,19.51
2022-08-10T03:49:07.697Z,19.47
2022-08-10T03:51:38.710Z,19.45
2022-08-10T03:54:07.647Z,19.46
2022-08-10T03:56:37.844Z,19.43
2022-08-10T03:59:07.895Z,19.43
2022-08-10T04:02:43.420Z,19.44
2022-08-10T04:04:26.358Z,19.46
2022-08-10T04:06:56.932Z,19.48
2022-08-10T04:09:43.435Z,19.49
2022-08-10T04:12:15.997Z,19.48
2022-08-10T04:14:50.791Z,19.47
2022-08-10T04:18:03.729Z,19.46
2022-08-10T04:20:20.294Z,19.49
2022-08-10T04:22:51.840Z,19.50
2022-08-10T04:25:22.120Z,19.57
2022-08-10T04:27:51.213Z,19.63
2022-08-10T04:30:19.467Z,19.65
2022-08-10T04:32:51.050Z,19.68
2022-08-10T04:35:22.380Z,19.70
2022-08-10T04:37:51.537Z,19.70
2022-08-10T04:40:28.401Z,19.68
2022-08-10T04:43:09.043Z,19.70
2022-08-10T04:45:47.896Z,19.74
2022-08-10T04:48:42.990Z,19.79
2022-08-10T04:51:17.061Z,19.83
2022-08-10T04:54:05.071Z,19.86
2022-08-10T04:56:37.205Z,19.94
2022-08-10T04:59:06.209Z,19.96
2022-08-10T05:02:21.908Z,19.99
2022-08-10T05:04:36.093Z,19.99
2022-08-10T05:07:09.991Z,20.07
2022-08-10T05:10:04.991Z,20.15
2022-08-10T05:12:26.967Z,20.24
2022-08-10T05:14:57.608Z,20.30
2022-08-10T05:17:25.831Z,20.37
2022-08-10T05:20:04.006Z,20.40
2022-08-10T05:22:37.343Z,20.46
2022-08-10T05:25:07.169Z,20.48
2022-08-10T05:27:36.159Z,20.53
2022-08-10T05:30:05.737Z,20.59
2022-08-10T05:32:35.595Z,20.64
2022-08-10T05:35:23.721Z,20.69
2022-08-10T05:38:11.451Z,20.73
2022-08-10T05:40:46.563Z,20.73
2022-08-10T05:43:18.171Z,20.75
2022-08-10T05:46:19.566Z,20.75
2022-08-10T05:48:54.460Z,20.75
2022-08-10T05:51:24.505Z,20.79
2022-08-10T05:54:03.063Z,20.85
2022-08-10T05:56:54.302Z,20.86
2022-08-10T06:00:31.038Z,20.89
2022-08-10T06:02:33.399Z,20.93
2022-08-10T06:05:08.113Z,21.02
2022-08-10T06:07:40.169Z,21.10
2022-08-10T06:10:14.114Z,21.18
2022-08-10T06:13:26.570Z,21.16
2022-08-10T06:16:03.868Z,21.20
2022-08-10T06:18:32.304Z,21.22
2022-08-10T06:21:03.167Z,21.24
2022-08-10T06:23:33.015Z,21.32
2022-08-10T06:26:10.866Z,21.35
2022-08-10T06:28:58.289Z,21.38
2022-08-10T06:31:47.749Z,21.43
2022-08-10T06:34:22.200Z,21.50
2022-08-10T06:36:51.218Z,21.58
2022-08-10T06:39:36.191Z,21.65
2022-08-10T06:42:18.027Z,21.77
2022-08-10T06:44:55.755Z,21.86
2022-08-10T06:47:27.763Z,21.91
2022-08-10T06:50:01.636Z,21.96
2022-08-10T06:52:35.142Z,22.02
2022-08-10T06:55:08.702Z,22.09
2022-08-10T06:57:39.734Z,22.15
2022-08-10T07:00:10.444Z,22.22
2022-08-10T07:02:46.384Z,22.32
2022-08-10T07:05:20.841Z,22.41
2022-08-10T07:07:51.005Z,22.52
2022-08-10T07:10:22.083Z,22.60
2022-08-10T07:12:54.109Z,22.68
2022-08-10T07:15:23.484Z,22.76
2022-08-10T07:18:13.649Z,22.86
2022-08-10T07:20:43.202Z,22.96
2022-08-10T07:23:57.349Z,23.05
2022-08-10T07:26:03.146Z,23.16
2022-08-10T07:28:34.652Z,23.24
2022-08-10T07:31:31.061Z,23.32
2022-08-10T07:33:56.532Z,23.44
2022-08-10T07:36:26.136Z,23.52
2022-08-10T07:38:56.976Z,23.57
2022-08-10T07:41:30.648Z,23.64
2022-08-10T07:44:06.619Z,23.77
2022-08-10T07:46:38.107Z,23.87
2022-08-10T07:49:15.245Z,23.95
2022-08-10T07:51:54.867Z,24.05
2022-08-10T07:54:26.210Z,24.13
2022-08-10T07:56:59.695Z,24.22
2022-08-10T07:59:36.113Z,24.33
2022-08-10T08:02:06.232Z,24.41
2022-08-10T08:04:35.055Z,24.47
2022-08-10T08:07:04.490Z,24.55
2022-08-10T08:09:33.318Z,24.65
2022-08-10T08:12:03.527Z,24.75
2022-08-10T08:14:36.270Z,24.85
2022-08-10T08:17:09.941Z,24.92
2022-08-10T08:19:45.882Z,25.00
2022-08-10T08:24:30.416Z,25.06
2022-08-10T08:25:14.742Z,25.14
2022-08-10T08:27:47.854Z,25.22
2022-08-10T08:30:27.658Z,25.32
2022-08-10T08:32:57.384Z,25.42
2022-08-10T08:35:27.563Z,25.51
2022-08-10T08:38:32.937Z,25.62
2022-08-10T08:40:51.675Z,25.71
2022-08-10T08:43:39.499Z,25.78
2022-08-10T08:46:58.818Z,25.84
2022-08-10T08:50:08.624Z,25.94
2022-08-10T08:52:49.748Z,26.05
2022-08-10T08:56:05.078Z,26.14
2022-08-10T08:58:31.551Z,26.20
2022-08-10T09:01:13.438Z,26.28
2022-08-10T09:03:59.560Z,26.26
2022-08-10T09:06:48.069Z,26.23
2022-08-10T09:09:42.718Z,26.27
2022-08-10T09:12:23.605Z,26.36
2022-08-10T09:14:57.336Z,26.49
2022-08-10T09:17:42.611Z,26.66
2022-08-10T09:20:24.002Z,26.84
2022-08-10T09:22:59.100Z,27.02
2022-08-10T09:25:35.392Z,27.19
2022-08-10T09:28:10.866Z,27.35
2022-08-10T09:31:10.895Z,27.54
2022-08-10T09:36:23.159Z,27.81
2022-08-10T09:36:45.683Z,27.96
2022-08-10T09:40:06.774Z,27.90
2022-08-10T09:42:17.506Z,27.87
2022-08-10T09:44:57.354Z,27.88
2022-08-10T09:47:40.208Z,27.86
2022-08-10T09:50:41.022Z,27.84
2022-08-10T09:53:25.675Z,27.71
2022-08-10T09:56:17.953Z,27.63
2022-08-10T09:59:26.881Z,27.54
2022-08-10T10:02:03.140Z,27.59
2022-08-10T10:04:41.900Z,27.80
2022-08-10T10:07:15.199Z,27.99
2022-08-10T10:09:53.336Z,28.19
2022-08-10T10:12:28.012Z,28.46
2022-08-10T10:15:25.007Z,28.59
2022-08-10T10:18:19.809Z,28.75
2022-08-10T10:20:56.738Z,28.83
2022-08-10T10:23:39.417Z,28.88
2022-08-10T10:26:19.505Z,29.11
2022-08-10T10:29:44.832Z,29.23
2022-08-10T10:31:57.834Z,29.41
2022-08-10T10:34:34.832Z,29.54
2022-08-10T10:37:06.490Z,29.70
2022-08-10T10:39:37.107Z,29.86
2022-08-10T10:42:42.303Z,30.05
2022-08-10T10:45:17.357Z,30.22
2022-08-10T10:47:56.486Z,30.31
2022-08-10T10:50:32.432Z,30.38
2022-08-10T10:53:10.839Z,30.42
2022-08-10T10:56:13.768Z,30.47
2022-08-10T10:58:59.510Z,30.61
2022-08-10T11:01:38.825Z,30.67
2022-08-10T11:04:19.534Z,30.71
2022-08-10T11:06:58.231Z,30.78
2022-08-10T11:10:03.308Z,30.63
2022-08-10T11:12:27.648Z,30.53
2022-08-10T11:15:05.103Z,30.35
2022-08-10T11:17:40.043Z,30.19
2022-08-10T11:20:16.572Z,30.18
2022-08-10T11:22:58.552Z,30.19
2022-08-10T11:25:30.667Z,30.16
2022-08-10T11:28:04.923Z,30.12
2022-08-10T11:30:44.542Z,30.08
2022-08-10T11:33:32.883Z,30.11
2022-08-10T11:36:04.896Z,30.07
2022-08-10T11:38:57.752Z,29.88
2022-08-10T11:42:07.950Z,29.92
2022-08-10T11:44:29.539Z,30.13
2022-08-10T11:47:10.907Z,30.36
2022-08-10T11:49:46.439Z,30.42
2022-08-10T11:52:24.262Z,30.57
2022-08-10T11:54:55.517Z,30.78
2022-08-10T11:57:53.956Z,30.94
2022-08-10T12:00:20.765Z,31.11
2022-08-10T12:02:53.453Z,31.27
2022-08-10T12:05:53.130Z,31.46
2022-08-10T12:10:02.576Z,31.58
2022-08-10T12:11:06.613Z,31.69
2022-08-10T12:14:04.312Z,31.80
2022-08-10T12:16:40.563Z,31.93
2022-08-10T12:19:26.614Z,32.09
2022-08-10T12:22:05.872Z,32.23
2022-08-10T12:24:38.961Z,32.34
2022-08-10T12:27:13.178Z,32.44
2022-08-10T12:29:48.634Z,32.47
2022-08-10T12:32:25.538Z,32.61
2022-08-10T12:35:01.419Z,32.65
2022-08-10T12:37:34.654Z,32.35
2022-08-10T12:44:05.774Z,32.45
2022-08-10T12:46:06.991Z,32.55
2022-08-10T12:48:40.227Z,32.76
2022-08-10T12:51:19.870Z,32.98
2022-08-10T12:53:54.284Z,33.16
2022-08-10T12:56:26.462Z,33.26
2022-08-10T12:59:01.447Z,33.23
2022-08-10T13:02:07.454Z,32.85
2022-08-10T13:04:28.396Z,32.77
2022-08-10T13:07:02.385Z,32.90
2022-08-10T13:09:55.692Z,33.05
2022-08-10T13:12:35.780Z,33.16
2022-08-10T13:15:45.661Z,33.33
2022-08-10T13:18:17.778Z,33.48
2022-08-10T13:20:50.093Z,33.49
2022-08-10T13:23:23.283Z,33.74
2022-08-10T13:25:53.526Z,33.96
2022-08-10T13:28:39.903Z,34.09
2022-08-10T13:31:16.281Z,34.42
2022-08-10T13:34:41.522Z,34.83
2022-08-10T13:36:41.398Z,35.07
2022-08-10T13:39:13.283Z,35.09
2022-08-10T13:41:46.108Z,34.82
2022-08-10T13:44:19.277Z,34.88
2022-08-10T13:46:51.525Z,35.10
2022-08-10T13:49:21.439Z,35.16
2022-08-10T13:51:57.676Z,35.05
2022-08-10T13:54:37.062Z,34.69
2022-08-10T13:57:08.232Z,34.32
2022-08-10T14:00:34.813Z,33.97
2022-08-10T14:02:43.161Z,33.54
2022-08-10T14:05:12.314Z,33.37
2022-08-10T14:08:00.597Z,33.24
2022-08-10T14:11:08.859Z,33.35
2022-08-10T14:13:28.804Z,33.80
2022-08-10T14:15:58.458Z,34.29
2022-08-10T14:18:29.312Z,34.76
2022-08-10T14:21:00.169Z,35.05
2022-08-10T14:23:28.366Z,35.28
2022-08-10T14:26:05.421Z,35.36
2022-08-10T14:28:41.805Z,35.72
2022-08-10T14:31:17.571Z,35.99
2022-08-10T14:33:58.604Z,36.10
2022-08-10T14:36:34.268Z,36.21
2022-08-10T14:39:03.997Z,36.41
2022-08-10T14:42:03.156Z,36.21
2022-08-10T14:44:30.079Z,36.42
2022-08-10T14:47:52.093Z,36.52
2022-08-10T14:49:58.625Z,36.55
2022-08-10T14:52:28.651Z,36.71
2022-08-10T14:54:58.070Z,36.72
2022-08-10T14:58:19.336Z,36.89
2022-08-10T15:00:39.082Z,36.99
2022-08-10T15:03:16.063Z,36.98
2022-08-10T15:05:59.461Z,37.22
2022-08-10T15:08:37.085Z,37.69
2022-08-10T15:11:09.093Z,37.92
2022-08-10T15:14:41.203Z,38.03
2022-08-10T15:16:55.027Z,38.09
2022-08-10T15:20:01.096Z,38.41
2022-08-10T15:22:36.632Z,38.74
2022-08-10T15:25:17.609Z,38.89
2022-08-10T15:27:54.713Z,38.75
2022-08-10T15:30:31.740Z,39.02
2022-08-10T15:33:59.309Z,39.37
2022-08-10T15:36:33.965Z,39.66
2022-08-10T15:39:04.824Z,39.36
2022-08-10T15:41:58.570Z,39.83
2022-08-10T15:44:37.695Z,40.47
2022-08-10T15:47:10.998Z,40.88
2022-08-10T15:49:46.941Z,41.47
2022-08-10T15:52:39.247Z,42.26
2022-08-10T15:55:42.762Z,42.64
2022-08-10T15:58:07.738Z,43.38
2022-08-10T16:00:39.675Z,44.25
2022-08-10T16:03:17.252Z,45.23
2022-08-10T16:06:02.264Z,46.89
2022-08-10T16:08:55.783Z,48.19
2022-08-10T16:11:37.428Z,49.14
2022-08-10T16:14:15.017Z,49.74
2022-08-10T16:16:51.121Z,50.40
2022-08-10T16:19:24.988Z,51.10
2022-08-10T16:22:00.025Z,51.75
2022-08-10T16:24:32.487Z,51.34
2022-08-10T16:27:07.285Z,51.52
2022-08-10T16:29:56.582Z,51.93
2022-08-10T16:32:26.529Z,51.83
2022-08-10T16:34:57.501Z,52.22
2022-08-10T16:37:58.079Z,51.15
2022-08-10T16:40:26.810Z,49.29
2022-08-10T16:42:56.714Z,48.44
2022-08-10T16:45:31.645Z,48.55
2022-08-10T16:48:00.612Z,48.77
2022-08-10T16:50:32.160Z,49.07
2022-08-10T16:53:06.266Z,48.31
2022-08-10T16:55:47.987Z,47.03
2022-08-10T16:58:20.586Z,46.03
2022-08-10T17:00:51.020Z,44.92
2022-08-10T17:04:06.660Z,44.13
2022-08-10T17:06:20.858Z,43.28
2022-08-10T17:08:53.236Z,42.81
2022-08-10T17:11:25.055Z,42.14
2022-08-10T17:13:57.526Z,41.95
2022-08-10T17:16:34.252Z,41.38
2022-08-10T17:19:04.589Z,41.20
2022-08-10T17:21:51.147Z,41.01
2022-08-10T17:24:23.846Z,40.80
2022-08-10T17:26:52.892Z,40.52
2022-08-10T17:29:57.967Z,40.19
2022-08-10T17:32:18.550Z,39.62
2022-08-10T17:34:54.459Z,39.23
2022-08-10T17:37:29.639Z,38.76
2022-08-10T17:40:03.307Z,38.09
2022-08-10T17:42:32.001Z,37.36
2022-08-10T17:45:01.373Z,36.77
2022-08-10T17:47:30.337Z,36.17
2022-08-10T17:49:59.836Z,35.63
2022-08-10T17:52:33.521Z,35.03
2022-08-10T17:55:05.542Z,34.57
2022-08-10T17:57:37.310Z,34.14
2022-08-10T18:00:14.446Z,33.85
2022-08-10T18:02:46.176Z,33.56
2022-08-10T18:05:16.030Z,33.17
2022-08-10T18:07:48.600Z,32.94
2022-08-10T18:10:21.667Z,32.66
2022-08-10T18:12:52.116Z,32.40
2022-08-10T18:15:24.594Z,32.17
2022-08-10T18:17:59.173Z,31.88
2022-08-10T18:20:35.227Z,31.68
2022-08-10T18:23:07.245Z,31.49
2022-08-10T18:25:39.461Z,31.31
2022-08-10T18:28:11.772Z,31.14
2022-08-10T18:30:47.932Z,30.94
2022-08-10T18:33:18.950Z,30.76
2022-08-10T18:35:49.092Z,30.60
2022-08-10T18:38:20.041Z,30.39
2022-08-10T18:40:54.599Z,30.23
2022-08-10T18:44:07.198Z,30.01
2022-08-10T18:46:18.418Z,29.86
2022-08-10T18:48:53.199Z,29.69
2022-08-10T18:51:26.367Z,29.51
2022-08-10T18:54:00.483Z,29.29
2022-08-10T18:56:54.969Z,29.08
2022-08-10T19:00:03.949Z,28.91
2022-08-10T19:02:51.555Z,28.72
2022-08-10T19:05:36.426Z,28.55
2022-08-10T19:08:30.266Z,28.34
2022-08-10T19:11:06.646Z,28.18
2022-08-10T19:13:48.852Z,28.01
2022-08-10T19:16:35.551Z,27.85
2022-08-10T19:19:22.689Z,27.75
2022-08-10T19:22:04.215Z,27.61
2022-08-10T19:24:44.759Z,27.43
2022-08-10T19:27:31.557Z,27.25
2022-08-10T19:30:11.728Z,27.10
2022-08-10T19:33:08.169Z,26.97
2022-08-10T19:36:03.736Z,26.82
2022-08-10T19:38:50.813Z,26.71
2022-08-10T19:41:32.027Z,26.63
2022-08-10T19:44:21.993Z,26.57
2022-08-10T19:46:55.350Z,26.49
2022-08-10T19:49:32.682Z,26.44
2022-08-10T19:52:19.644Z,26.43
2022-08-10T19:54:56.717Z,26.40
2022-08-10T19:57:33.808Z,26.38
2022-08-10T20:00:18.863Z,26.33
2022-08-10T20:03:14.202Z,26.28
2022-08-10T20:06:13.113Z,26.23
2022-08-10T20:08:45.674Z,26.18
2022-08-10T20:11:44.442Z,26.16
2022-08-10T20:14:22.343Z,26.13
2022-08-10T20:16:56.142Z,26.09
2022-08-10T20:19:53.278Z,26.07
2022-08-10T20:22:29.773Z,26.04
2022-08-10T20:25:03.742Z,26.02
2022-08-10T20:28:00.615Z,26.00
2022-08-10T20:30:30.122Z,25.96
2022-08-10T20:33:11.082Z,25.91
2022-08-10T20:35:49.367Z,25.87
2022-08-10T20:38:27.376Z,25.80
2022-08-10T20:41:07.182Z,25.73
2022-08-10T20:43:45.622Z,25.64
2022-08-10T20:46:27.724Z,25.52
2022-08-10T20:49:05.503Z,25.45
2022-08-10T20:51:59.369Z,25.37
2022-08-10T20:54:32.515Z,25.28
2022-08-10T20:57:54.654Z,25.24
2022-08-10T21:00:42.661Z,25.15
2022-08-10T21:03:31.873Z,25.08
2022-08-10T21:06:41.162Z,25.00
2022-08-10T21:09:25.562Z,24.93
2022-08-10T21:12:16.812Z,24.87
2022-08-10T21:14:55.103Z,24.83
2022-08-10T21:17:39.592Z,24.79
2022-08-10T21:20:36.061Z,24.69
2022-08-10T21:23:08.624Z,24.58
2022-08-10T21:25:45.141Z,24.56
2022-08-10T21:28:41.098Z,24.53
2022-08-10T21:31:37.325Z,24.51
2022-08-10T21:34:12.559Z,24.45
2022-08-10T21:36:45.917Z,24.37
2022-08-10T21:39:42.467Z,24.26
2022-08-10T21:42:43.826Z,24.21
2022-08-10T21:45:58.976Z,24.17
2022-08-10T21:48:57.563Z,24.12
2022-08-10T21:52:04.146Z,24.03
2022-08-10T21:54:59.984Z,23.97
2022-08-10T21:57:57.352Z,23.90
2022-08-10T22:00:43.418Z,23.86
2022-08-10T22:03:40.098Z,23.80
2022-08-10T22:06:28.485Z,23.73
2022-08-10T22:09:24.623Z,23.63
2022-08-10T22:12:31.034Z,23.59
2022-08-10T22:15:24.342Z,23.58
2022-08-10T22:18:32.954Z,23.53
2022-08-10T22:21:30.201Z,23.52
2022-08-10T22:24:41.471Z,23.45
2022-08-10T22:27:51.734Z,23.41
2022-08-10T22:31:08.269Z,23.30
2022-08-10T22:34:02.685Z,23.22
2022-08-10T22:37:16.536Z,23.21
2022-08-10T22:40:21.971Z,23.13
2022-08-10T22:43:13.829Z,23.10
2022-08-10T22:46:06.177Z,23.03
2022-08-10T22:48:59.489Z,22.99
2022-08-10T22:51:36.473Z,23.00
2022-08-10T22:54:31.687Z,23.00
2022-08-10T22:57:19.200Z,22.95
2022-08-10T22:59:50.278Z,22.91
2022-08-10T23:02:35.320Z,22.91
2022-08-10T23:05:09.050Z,22.87
2022-08-10T23:07:47.355Z,22.86
2022-08-10T23:10:17.478Z,22.79
2022-08-10T23:12:52.391Z,22.72
2022-08-10T23:15:44.373Z,22.69
2022-08-10T23:18:37.389Z,22.70
2022-08-10T23:21:08.562Z,22.65
2022-08-10T23:23:41.458Z,22.63
2022-08-10T23:26:16.180Z,22.62
2022-08-10T23:29:02.611Z,22.61
2022-08-10T23:31:59.078Z,22.58
2022-08-10T23:34:30.360Z,22.55
2022-08-10T23:37:01.147Z,22.55
2022-08-10T23:39:33.701Z,22.54
2022-08-10T23:42:07.835Z,22.50
2022-08-10T23:44:43.910Z,22.47
2022-08-10T23:47:20.583Z,22.43
2022-08-10T23:49:54.740Z,22.40
2022-08-10T23:52:25.521Z,22.36
2022-08-10T23:54:57.204Z,22.33
2022-08-10T23:57:27.927Z,22.31
2022-08-10T23:59:59.819Z,22.28
